• Join FlightAware (Why Join?)
  • Login
  • US Flag 
11:08AM EDT


 

Airport Tracker/Info


-or-


 

Live Flight TrackerFlight Track Log ✈ UAL906 ✈ 25-Jul-2013 ✈ EDDF / FRA - KORD

Flight Track Log - Related Links

Times and Time Zones

All times are in EDT time to prevent confusion due to time zone crossing. See the UAL906 flight status page for this flight to view local times or setup timezone preferences in your user account.

Time Position Orientation Groundspeed Altitude Reporting Facility
EDT Latitude Longitude Course Direction KTS MPH feet Rate Location/Type
06:43AM 50.0450 8.5670 292° West  Level FlightAware
06:46AM 50.2059 8.1549 308° West  Level FlightAware Approximate
06:47AM 50.2750 8.0084 298° West  Level FlightAware Approximate
06:48AM 50.3442 7.8618 308° West  Level FlightAware Approximate
06:49AM 50.4123 7.7135 305° West  Level FlightAware Approximate
06:50AM 50.4787 7.5628 305° West  Level FlightAware Approximate
06:51AM 50.5449 7.4117 305° West  Level FlightAware Approximate
06:52AM 50.6087 7.2579 303° West  Level FlightAware Approximate
06:52AM 50.0450 8.5700 90° East 13 15  Level FlightAware
06:55AM 50.1815 8.2161 300° West  Level FlightAware Approximate
06:56AM 50.2493 8.0682 308° West  Level FlightAware Approximate
06:57AM 50.3157 7.9188 308° West  Level FlightAware Approximate
06:57AM 50.0450 8.5690 308° West 20 23  Level FlightAware
06:57AM 50.0440 8.5680 213° Southwest 20 23  Level FlightAware
06:58AM 50.0430 8.5680 180° South 26 30 60 Level FlightAware
06:58AM 50.0430 8.5690 90° East 24 28 60 Level FlightAware
06:59AM 50.0430 8.5720 90° East 29 33 60 Level FlightAware
06:59AM 50.0440 8.5740 52° Northeast 31 36 60 Level FlightAware
07:00AM 50.0450 8.5770 63° Northeast 30 35 60 Level FlightAware
07:00AM 50.0450 8.5790 90° East 33 38 60 Level FlightAware
07:01AM 50.0460 8.5820 63° Northeast 32 37 60 Level FlightAware
07:01AM 50.0460 8.5840 90° East 31 36 60 Level FlightAware
07:02AM 50.0460 8.5860 90° East 2 2 60 Level FlightAware
07:04AM 50.0450 8.5860 180° South 23 26 120 Level FlightAware
07:05AM 50.0450 8.5850 270° West 26 30 300 Level FlightAware
07:05AM 50.0420 8.5720 250° West 125 144 540 Level FlightAware
07:06AM 50.0350 8.5430 249° West 180 207 500 1,620 Climbing FlightAware
07:06AM 50.0280 8.5170 247° West 184 212 1,300 2,160 Climbing FlightAware
07:06AM 50.0270 8.4980 265° West 185 213 1,900 2,040 Climbing FlightAware
07:07AM 50.0290 8.4600 275° West 189 217 2,800 1,860 Climbing FlightAware
07:07AM 50.0280 8.4240 268° West 186 214 3,600 1,440 Climbing FlightAware
07:08AM 50.0240 8.3850 261° West 212 244 4,100 1,080 Climbing FlightAware
07:08AM 50.0200 8.3500 260° West 233 268 4,500 1,260 Climbing FlightAware
07:08AM 50.0170 8.3310 256° West 240 276 4,800 1,680 Climbing FlightAware
07:09AM 50.0190 8.2530 272° West 259 298 6,100 1,980 Climbing FlightAware
07:09AM 50.0340 8.2040 295° West 266 306 7,200 2,040 Climbing FlightAware
07:10AM 50.0400 8.1830 294° West 271 312 7,500 2,040 Climbing FlightAware
07:10AM 50.0580 8.1260 296° West 276 318 8,700 2,280 Climbing FlightAware
07:10AM 50.0760 8.0890 307° West 279 321 9,600 2,100 Climbing FlightAware
07:11AM 50.0920 8.0670 319° Northwest 288 331 10,100 1,140 Climbing FlightAware
07:11AM 50.1310 8.0260 326° Northwest 317 365 10,700 840 Climbing FlightAware
07:12AM 50.1960 7.9570 326° Northwest 361 415 11,300 1,080 Climbing FlightAware
07:13AM 50.2520 7.8980 326° Northwest 382 440 12,200 1,560 Climbing FlightAware
07:13AM 50.3100 7.8340 325° Northwest 390 449 13,400 1,740 Climbing FlightAware
07:14AM 50.3770 7.7620 326° Northwest 401 461 14,700 1,740 Climbing FlightAware
07:15AM 50.4480 7.6840 325° Northwest 406 467 16,100 1,860 Climbing FlightAware
07:16AM 50.5100 7.6160 325° Northwest 405 466 17,400 1,740 Climbing FlightAware
07:16AM 50.5750 7.5440 325° Northwest 408 470 18,500 1,740 Climbing FlightAware
07:17AM 50.6400 7.4740 326° Northwest 417 480 19,900 2,040 Climbing FlightAware
07:18AM 50.7110 7.3950 325° Northwest 415 478 21,500 2,160 Climbing FlightAware
07:18AM 50.7710 7.3290 325° Northwest 408 470 23,000 2,160 Climbing FlightAware
07:19AM 50.8390 7.2530 325° Northwest 400 460 24,500 1,500 Climbing FlightAware
07:20AM 50.9110 7.2030 336° Northwest 419 482 25,200 780 Climbing FlightAware
07:21AM 50.9890 7.1550 339° North 432 497 25,600 540 Climbing FlightAware
07:21AM 51.0640 7.1010 336° Northwest 445 512 26,000 1,260 Climbing FlightAware
07:22AM 51.1340 7.0450 333° Northwest 433 498 27,300 1,620 Climbing FlightAware
07:23AM 51.2180 6.9800 334° Northwest 428 493 28,400 900 Climbing FlightAware
07:23AM 51.2810 6.8980 321° Northwest 427 491 28,700 360 Climbing FlightAware
07:24AM 51.3330 6.7910 308° West 440 506 28,900 360 Climbing FlightAware
07:25AM 51.3770 6.6960 307° West 450 518 29,200 600 Climbing FlightAware
07:25AM 51.4370 6.5690 307° West 456 525 29,800 840 Climbing FlightAware
07:26AM 51.4930 6.4490 307° West 457 526 30,500 1,200 Climbing FlightAware
07:27AM 51.5420 6.3440 307° West 450 518 31,500 1,260 Climbing FlightAware
07:28AM 51.5960 6.2280 307° West 443 510 32,300 1,260 Climbing FlightAware
07:28AM 51.6460 6.1210 307° West 434 499 33,300 1,080 Climbing FlightAware
07:29AM 51.6940 6.0170 307° West 434 499 33,800 480 Climbing FlightAware
07:30AM 51.7470 5.9010 306° West 431 496 34,000 120 Climbing FlightAware
07:30AM 51.7749 5.8194 306° West 488 562 34,000  Level FlightAware UK
07:30AM 51.7940 5.7980 306° West 432 497 34,000  Level FlightAware
07:31AM 51.8460 5.6840 306° West 431 496 34,000  Level FlightAware
07:32AM 51.8930 5.5800 306° West 431 496 34,000 -120 Level FlightAware
07:32AM 51.9289 5.4983 306° West 490 564 33,900  Descending FlightAware UK
07:32AM 51.9440 5.4670 306° West 430 495 34,000 60 Climbing FlightAware
07:33AM 51.9910 5.3630 306° West 430 495 34,000  Level FlightAware
07:34AM 52.0390 5.2560 306° West 429 494 34,000  Level FlightAware
07:34AM 52.0850 5.1510 306° West 430 495 34,000  Level FlightAware
07:35AM 52.0913 5.1393 306° West 490 564 34,000 -180 Level FlightAware UK
07:35AM 52.1245 5.0593 306° West 490 564 33,900  Descending FlightAware UK
07:35AM 52.1360 5.0360 306° West 430 495 34,000 60 Climbing FlightAware
07:36AM 52.1870 4.9190 305° West 430 495 34,000  Level FlightAware
07:37AM 52.2470 4.7830 306° West 431 496 34,000 -120 Level FlightAware
07:37AM 52.2918 4.6808 306° West 488 562 33,900  Descending FlightAware UK
07:38AM 52.3010 4.6620 306° West 432 497 34,000 120 Climbing FlightAware
07:38AM 52.3420 4.5700 306° West 431 496 34,000  Level FlightAware
07:39AM 52.3940 4.4500 305° West 431 496 34,000  Level FlightAware
07:39AM 52.4300 4.3670 305° West 431 496 34,000  Level FlightAware
07:40AM 52.4780 4.2550 305° West 430 495 34,000  Level FlightAware
07:41AM 52.5211 4.1560 305° West 490 564 34,000  Level FlightAware UK
07:41AM 52.5330 4.1270 305° West 429 494 34,000  Level FlightAware
07:42AM 52.5770 4.0220 305° West 429 494 34,000  Level FlightAware
07:42AM 52.6160 3.9320 306° West 430 495 34,000  Level FlightAware
07:43AM 52.6600 3.8260 304° West 431 496 34,000  Level FlightAware
07:44AM 52.7130 3.7020 305° West 431 496 34,000  Level FlightAware
07:44AM 52.7570 3.5950 304° West 431 496 34,000  Level FlightAware
07:45AM 52.7993 3.4959 304° West 488 562 34,000  Level FlightAware UK
07:45AM 52.8060 3.4790 304° West 432 497 34,000 -180 Level FlightAware
07:46AM 52.8466 3.3822 304° West 488 562 33,900  Descending FlightAware UK
07:46AM 52.8570 3.3560 304° West 433 498 34,000 60 Climbing FlightAware
07:46AM 52.9040 3.2410 304° West 433 498 34,000  Level FlightAware
07:47AM 52.9420 3.1490 304° West 434 499 34,000  Level FlightAware
07:48AM 52.9930 3.0260 305° West 434 499 34,000  Level FlightAware
07:48AM 53.0320 2.9290 304° West 434 499 34,000  Level FlightAware
07:49AM 53.0760 2.8220 304° West 435 501 34,000 -120 Level FlightAware
07:50AM 53.1165 2.7228 304° West 488 562 33,900  Descending FlightAware UK
07:50AM 53.1220 2.7080 304° West 435 501 34,000  Climbing FlightAware
07:50AM 53.1631 2.6044 304° West 488 562 33,900  Descending FlightAware UK
07:50AM 53.1690 2.5910 304° West 436 502 34,000 120 Climbing FlightAware
07:51AM 53.2090 2.4670 298° West 421 484 34,000  Level FlightAware
07:52AM 53.2300 2.3340 285° West 416 479 34,000  Level FlightAware
07:52AM 53.2470 2.2060 283° West 416 479 34,000 -120 Level FlightAware
07:53AM 53.2648 2.0742 283° West 490 564 33,900  Descending FlightAware UK
07:53AM 53.2650 2.0740 283° West 416 479 34,000 120 Climbing FlightAware
07:54AM 53.2820 1.9510 283° West 416 479 34,000  Level FlightAware
07:54AM 53.2980 1.8320 283° West 417 480 34,000  Level FlightAware
07:55AM 53.3160 1.7040 283° West 417 480 34,000  Level FlightAware
07:56AM 53.3330 1.5750 282° West 419 482 34,000  Level FlightAware
07:56AM 53.3491 1.4538 283° West 420 483 34,000  Level FlightAware ADS-B
07:57AM 53.3710 1.2878 283° West 422 486 34,000  Level FlightAware ADS-B
07:58AM 53.3860 1.1740 283° West 421 484 34,000  Level FlightAware
07:59AM 53.4038 1.0357 283° West 488 562 34,000  Level FlightAware UK
07:59AM 53.4030 1.0410 283° West 421 484 34,000  Level FlightAware
07:59AM 53.4209 0.9018 283° West 488 562 34,000  Level FlightAware UK
07:59AM 53.4210 0.9010 283° West 423 487 34,000  Level FlightAware
08:00AM 53.4353 0.7873 283° West 490 564 34,000  Level FlightAware UK
08:00AM 53.4380 0.7650 283° West 423 487 34,000  Level FlightAware
08:01AM 53.4540 0.6400 282° West 422 486 34,000  Level FlightAware
08:01AM 53.4720 0.4970 282° West 422 486 34,000  Level FlightAware
08:02AM 53.4767 0.4577 281° West 423 487 34,000  Level FlightAware ADS-B
08:02AM 53.4985 0.3690 292° West 442 509 34,000  Level FlightAware ADS-B
08:03AM 53.5351 0.2771 304° West 450 518 34,000  Level FlightAware ADS-B
08:03AM 53.5722 0.1917 306° West 452 520 34,000  Level FlightAware ADS-B
08:04AM 53.6147 0.0939 306° West 452 520 34,000  Level FlightAware ADS-B
08:05AM 53.6723 -0.0410 306° West 484 557 34,000  Level FlightAware UK
08:05AM 53.7080 -0.1090 306° West 469 540 34,000  Level FlightAware
08:05AM 53.7235 -0.1308 320° Northwest 453 521 34,000  Level FlightAware ADS-B
08:06AM 53.7780 -0.1980 324° Northwest 483 556 34,000  Level FlightAware
08:06AM 53.8570 -0.2870 326° Northwest 485 558 34,000  Level FlightAware
08:07AM 53.9330 -0.3730 326° Northwest 486 559 34,000  Level FlightAware
08:08AM 54.0160 -0.4700 326° Northwest 488 562 34,000  Level FlightAware
08:08AM 54.0806 -0.5449 326° Northwest 486 559 34,000  Level FlightAware UK
08:08AM 54.0840 -0.5500 326° Northwest 489 563 34,000  Level FlightAware
08:09AM 54.1475 -0.6238 326° Northwest 490 564 34,000  Level FlightAware UK
08:09AM 54.1650 -0.6450 326° Northwest 490 564 34,000  Level FlightAware
08:10AM 54.2257 -0.7162 326° Northwest 490 564 34,000  Level FlightAware UK
08:10AM 54.2410 -0.7340 326° Northwest 491 565 34,000 -180 Level FlightAware
08:10AM 54.3036 -0.8083 326° Northwest 488 562 33,900  Descending FlightAware UK
08:10AM 54.3040 -0.8080 326° Northwest 491 565 34,000 60 Climbing FlightAware
08:11AM 54.3940 -0.9150 325° Northwest 492 566 34,000  Level FlightAware
08:12AM 54.4830 -1.0220 325° Northwest 492 566 34,000  Level FlightAware
08:13AM 54.5870 -1.1470 325° Northwest 492 566 34,000  Level FlightAware
08:14AM 54.6610 -1.2360 325° Northwest 492 566 34,000  Level FlightAware
08:14AM 54.7480 -1.3410 325° Northwest 491 565 34,000  Level FlightAware
08:15AM 54.8056 -1.4120 325° Northwest 488 562 34,000  Level FlightAware UK
08:15AM 54.8300 -1.4420 325° Northwest 492 566 34,000 -180 Level FlightAware
08:16AM 54.8943 -1.5208 325° Northwest 492 566 33,900  Descending FlightAware UK
08:16AM 54.9000 -1.5270 325° Northwest 492 566 34,000 120 Climbing FlightAware
08:16AM 54.9520 -1.5910 325° Northwest 493 567 34,000  Level FlightAware
08:17AM 55.0230 -1.6880 322° Northwest 484 557 34,000  Level FlightAware
08:18AM 55.0800 -1.8400 303° West 470 541 34,000  Level FlightAware
08:18AM 55.1106 -1.9446 303° West 490 564 34,000  Level FlightAware UK
08:18AM 55.1160 -1.9660 303° West 469 540 34,000  Level FlightAware
08:19AM 55.1550 -2.1070 296° West 468 539 34,000  Level FlightAware
08:20AM 55.1970 -2.2560 296° West 468 539 34,000  Level FlightAware
08:20AM 55.2352 -2.3920 296° West 488 562 34,000  Level FlightAware UK
08:20AM 55.2410 -2.4110 296° West 467 537 34,000  Level FlightAware
08:21AM 55.2760 -2.5370 296° West 468 539 34,000  Level FlightAware
08:22AM 55.3120 -2.6680 296° West 469 540 34,000  Level FlightAware
08:22AM 55.3544 -2.8202 296° West 486 559 34,000  Level FlightAware UK
08:22AM 55.3570 -2.8300 296° West 469 540 34,000  Level FlightAware
08:23AM 55.3900 -2.9510 296° West 470 541 34,000  Level FlightAware
08:24AM 55.4310 -3.1020 296° West 467 537 34,000  Level FlightAware
08:24AM 55.4665 -3.2321 296° West 484 557 34,000  Level FlightAware UK
08:24AM 55.4670 -3.2320 296° West 469 540 34,000  Level FlightAware
08:25AM 55.5017 -3.3565 296° West 484 557 34,000  Level FlightAware UK
08:25AM 55.5080 -3.3760 296° West 476 548 34,000  Level FlightAware
08:26AM 55.5487 -3.4969 296° West 480 552 34,000  Level FlightAware UK
08:26AM 55.5520 -3.5070 296° West 480 552 34,000  Level FlightAware
08:26AM 55.5950 -3.6300 302° West 482 555 34,000  Level FlightAware
08:27AM 55.6480 -3.7860 301° West 485 558 34,000 -120 Level FlightAware
08:28AM 55.6874 -3.9005 301° West 486 559 33,900  Descending FlightAware UK
08:28AM 55.6940 -3.9200 301° West 487 560 34,000 120 Climbing FlightAware
08:28AM 55.7358 -4.0435 301° West 486 559 34,000  Level FlightAware UK
08:29AM 55.7460 -4.0730 301° West 489 563 34,000  Level FlightAware
08:29AM 55.7850 -4.1890 301° West 491 565 34,000 -120 Level FlightAware
08:30AM 55.8333 -4.3335 301° West 488 562 33,900  Descending FlightAware UK
08:30AM 55.8350 -4.3390 301° West 492 566 34,000 120 Climbing FlightAware
08:31AM 55.8840 -4.4990 299° West 491 565 34,000  Level FlightAware
08:31AM 55.9190 -4.6290 296° West 493 567 34,000  Level FlightAware
08:32AM 55.9560 -4.7820 296° West 495 570 34,000  Level FlightAware
08:32AM 55.9582 -4.7924 296° West 484 557 34,000 -240 Level FlightAware UK
08:32AM 55.9841 -4.9056 296° West 490 564 33,900  Descending FlightAware UK
08:33AM 55.9930 -4.9440 296° West 496 571 34,000 60 Climbing FlightAware
08:33AM 56.0280 -5.1030 292° West 495 570 34,000  Level FlightAware
08:34AM 56.0670 -5.2780 292° West 497 572 34,000  Level FlightAware
08:35AM 56.0950 -5.4090 291° West 498 573 34,000  Level FlightAware
08:35AM 56.1351 -5.5912 291° West 492 566 34,000  Level FlightAware UK
08:35AM 56.1340 -5.5860 291° West 499 574 34,000  Level FlightAware
08:36AM 56.1680 -5.7410 292° West 500 575 34,000  Level FlightAware
08:37AM 56.2020 -5.9010 291° West 502 578 34,000  Level FlightAware
08:37AM 56.2404 -6.0784 291° West 486 559 34,000  Level FlightAware UK
08:37AM 56.2400 -6.0780 291° West 504 580 34,000  Level FlightAware
08:38AM 56.2730 -6.2300 291° West 507 583 34,000  Level FlightAware
08:39AM 56.3230 -6.4700 291° West 511 588 34,000  Level FlightAware
08:40AM 56.3500 -6.5990 291° West 511 588 34,000  Level FlightAware
08:40AM 56.3820 -6.7520 291° West 512 589 34,000  Level FlightAware
08:41AM 56.4146 -6.9099 291° West 490 564 34,000 120 Level FlightAware UK
08:41AM 56.4391 -7.0297 290° West 490 564 34,200 480 Climbing FlightAware UK
08:42AM 56.4410 -7.0410 290° West 508 585 34,300 480 Climbing FlightAware
08:42AM 56.4770 -7.2190 290° West 503 579 34,600 480 Climbing FlightAware
08:43AM 56.5100 -7.3790 290° West 503 579 35,000 420 Climbing FlightAware
08:43AM 56.5112 -7.3868 290° West 492 566 34,900 -240 Descending FlightAware UK
08:43AM 56.5350 -7.5061 290° West 492 566 34,900 120 Level FlightAware UK
08:44AM 56.5420 -7.5430 290° West 504 580 35,000 60 Climbing FlightAware
08:44AM 56.5770 -7.7190 290° West 504 580 35,000  Level FlightAware
08:45AM 56.6040 -7.8570 290° West 505 581 35,000  Level FlightAware
08:46AM 56.6350 -8.0180 290° West 507 583 35,000 -180 Level FlightAware
08:46AM 56.6386 -8.0331 290° West 490 564 34,900 -240 Descending FlightAware UK
08:46AM 56.6618 -8.1540 290° West 492 566 34,900 120 Level FlightAware UK
08:46AM 56.6690 -8.1900 290° West 508 585 35,000  Climbing FlightAware
08:47AM 56.6944 -8.3239 290° West 494 568 34,900  Descending FlightAware UK
08:47AM 56.6940 -8.3220 290° West 508 585 35,000 120 Climbing FlightAware
08:48AM 56.7260 -8.4950 289° West 511 588 35,000  Level FlightAware
08:48AM 56.7610 -8.6800 289° West 511 588 35,000 -180 Level FlightAware
08:48AM 56.7633 -8.6892 289° West 496 571 34,900 -240 Descending FlightAware UK
08:49AM 56.7860 -8.8112 289° West 494 568 34,900 120 Level FlightAware UK
08:49AM 56.7880 -8.8200 289° West 510 587 35,000  Climbing FlightAware
08:49AM 56.8129 -8.9565 289° West 496 571 34,900  Descending FlightAware UK
08:50AM 56.8180 -8.9830 289° West 509 586 35,000 60 Climbing FlightAware
08:50AM 56.8560 -9.1930 288° West 510 587 35,000  Level FlightAware
08:52AM 56.9040 -9.4570 289° West 509 586 35,000  Level FlightAware
08:52AM 56.9300 -9.6030 288° West 508 585 35,000  Level FlightAware
08:53AM 56.9590 -9.7730 287° West 508 585 35,000  Level FlightAware
08:54AM 56.9800 -9.8990 287° West 508 585 35,000  Level FlightAware
08:54AM 57.0210 -10.0800 293° West 509 586 35,000  Level FlightAware
08:55AM 57.0590 -10.2500 292° West 509 586 35,000  Level FlightAware
08:56AM 57.0860 -10.3730 292° West 509 586 35,000  Level FlightAware
08:56AM 57.1130 -10.4960 292° West 509 586 35,000  Level FlightAware
08:57AM 57.1940 -10.7070 305° West 516 594 35,000  Level FlightAware
08:58AM 57.2430 -10.9070 294° West 516 594 35,000  Level FlightAware
08:58AM 57.2840 -11.0780 294° West 516 594 35,000  Level FlightAware
08:59AM 57.3140 -11.2020 294° West 516 594 35,000  Level FlightAware
09:00AM 57.3640 -11.4120 294° West 516 594 35,000  Level FlightAware
09:01AM 57.3940 -11.5350 294° West 516 594 35,000  Level FlightAware
09:01AM 57.4330 -11.7010 294° West 516 594 35,000  Level FlightAware
09:02AM 57.4630 -11.8250 294° West 516 594 35,000  Level FlightAware
09:03AM 57.5130 -12.0320 294° West 516 594 35,000  Level FlightAware
09:04AM 57.5520 -12.1970 294° West 516 594 35,000  Level FlightAware
09:04AM 57.5820 -12.3220 294° West 516 594 35,000  Level FlightAware
09:05AM 57.6220 -12.4880 294° West 516 594 35,000  Level FlightAware
09:06AM 57.6520 -12.6160 294° West 516 594 35,000  Level FlightAware
09:07AM 57.6920 -12.7860 294° West 516 594 35,000  Level FlightAware
09:07AM 57.7220 -12.9110 294° West 516 594 35,000  Level FlightAware
09:10AM 57.8270 -13.4044 292° West  Level FlightAware Approximate
09:11AM 57.8734 -13.6262 292° West  Level FlightAware Approximate
09:12AM 57.9194 -13.8486 291° West  Level FlightAware Approximate
09:13AM 57.9650 -14.0716 291° West  Level FlightAware Approximate
09:14AM 58.0102 -14.2952 291° West  Level FlightAware Approximate
09:15AM 58.0550 -14.5193 291° West  Level FlightAware Approximate
09:16AM 58.0995 -14.7439 291° West  Level FlightAware Approximate
09:17AM 58.1435 -14.9692 290° West  Level FlightAware Approximate
09:18AM 58.1871 -15.1950 290° West  Level FlightAware Approximate
09:19AM 58.2304 -15.4213 290° West  Level FlightAware Approximate
09:20AM 58.2732 -15.6482 290° West  Level FlightAware Approximate
09:21AM 58.3156 -15.8756 290° West  Level FlightAware Approximate
09:22AM 58.3577 -16.1036 289° West  Level FlightAware Approximate
09:23AM 58.3993 -16.3321 289° West  Level FlightAware Approximate
09:24AM 58.4405 -16.5612 289° West  Level FlightAware Approximate
09:25AM 58.4813 -16.7908 289° West  Level FlightAware Approximate
09:26AM 58.5217 -17.0209 289° West  Level FlightAware Approximate
09:27AM 58.5617 -17.2515 288° West  Level FlightAware Approximate
09:28AM 58.6012 -17.4827 288° West  Level FlightAware Approximate
09:29AM 58.6404 -17.7144 288° West  Level FlightAware Approximate
09:30AM 58.6791 -17.9466 288° West  Level FlightAware Approximate
09:31AM 58.7174 -18.1793 288° West  Level FlightAware Approximate
09:32AM 58.7553 -18.4126 287° West  Level FlightAware Approximate
09:33AM 58.7928 -18.6463 287° West  Level FlightAware Approximate
09:33AM 59.0000 -20.0000 285° West 516 594 35,000  Level ETMS Enhanced Traffic Management System
09:34AM 58.8298 -18.8806 287° West  Level FlightAware Approximate
09:35AM 58.8665 -19.1153 287° West  Level FlightAware Approximate
09:36AM 58.9027 -19.3505 287° West  Level FlightAware Approximate
09:37AM 58.9384 -19.5863 286° West  Level FlightAware Approximate
09:38AM 58.9738 -19.8225 286° West  Level FlightAware Approximate
09:39AM 59.0084 -20.0593 285° West  Level FlightAware Approximate
09:40AM 59.2536 -21.8949 284° West 516 594 35,000  Level FlightAware Transoceanic
09:41AM 59.2876 -22.1678 284° West 516 594 35,000  Level FlightAware Transoceanic
09:42AM 59.3209 -22.4413 283° West 516 594 35,000  Level FlightAware Transoceanic
09:43AM 59.3538 -22.7153 283° West 516 594 35,000  Level FlightAware Transoceanic
09:44AM 59.3860 -22.9899 283° West 516 594 35,000  Level FlightAware Transoceanic
09:45AM 59.4177 -23.2649 283° West 516 594 35,000  Level FlightAware Transoceanic
09:46AM 59.4487 -23.5405 282° West 516 594 35,000  Level FlightAware Transoceanic
09:47AM 59.4793 -23.8166 282° West 516 594 35,000  Level FlightAware Transoceanic
09:48AM 59.5092 -24.0931 282° West 516 594 35,000  Level FlightAware Transoceanic
09:49AM 59.5385 -24.3702 282° West 516 594 35,000  Level FlightAware Transoceanic
09:50AM 59.5673 -24.6477 281° West 516 594 35,000  Level FlightAware Transoceanic
09:51AM 59.5954 -24.9257 281° West 516 594 35,000  Level FlightAware Transoceanic
09:52AM 59.6230 -25.2042 281° West 516 594 35,000  Level FlightAware Transoceanic
09:53AM 59.6500 -25.4831 281° West 516 594 35,000  Level FlightAware Transoceanic
09:54AM 59.6763 -25.7625 280° West 516 594 35,000  Level FlightAware Transoceanic
09:55AM 59.7021 -26.0423 280° West 516 594 35,000  Level FlightAware Transoceanic
09:56AM 59.7273 -26.3225 280° West 516 594 35,000  Level FlightAware Transoceanic
09:57AM 59.7519 -26.6031 280° West 516 594 35,000  Level FlightAware Transoceanic
09:58AM 59.7759 -26.8842 280° West 516 594 35,000  Level FlightAware Transoceanic
09:59AM 59.7993 -27.1656 279° West 516 594 35,000  Level FlightAware Transoceanic
10:00AM 59.8221 -27.4475 279° West 516 594 35,000  Level FlightAware Transoceanic
10:01AM 59.8443 -27.7297 279° West 516 594 35,000  Level FlightAware Transoceanic
10:02AM 59.8659 -28.0123 279° West 516 594 35,000  Level FlightAware Transoceanic
10:03AM 59.8869 -28.2952 278° West 516 594 35,000  Level FlightAware Transoceanic
10:04AM 59.9073 -28.5785 278° West 516 594 35,000  Level FlightAware Transoceanic
10:05AM 59.9270 -28.8622 278° West 516 594 35,000  Level FlightAware Transoceanic
10:06AM 59.9462 -29.1462 278° West 516 594 35,000  Level FlightAware Transoceanic
10:07AM 59.9647 -29.4305 277° West 516 594 35,000  Level FlightAware Transoceanic
10:08AM 59.9827 -29.7151 277° West 516 594 35,000  Level FlightAware Transoceanic
10:09AM 59.9980 -29.9668 277° West  Level FlightAware Approximate
10:10AM 60.0128 -30.2188 277° West  Level FlightAware Approximate
10:11AM 60.0253 -30.1799 286° West  Level FlightAware Approximate
10:12AM 60.0593 -30.4246 286° West  Level FlightAware Approximate
10:13AM 60.0928 -30.6698 285° West  Level FlightAware Approximate
10:14AM 60.1259 -30.9155 285° West  Level FlightAware Approximate
10:15AM 60.1586 -31.1617 285° West  Level FlightAware Approximate
10:16AM 60.1907 -31.4084 285° West  Level FlightAware Approximate
10:17AM 60.2224 -31.6556 285° West  Level FlightAware Approximate
10:18AM 60.2537 -31.9032 284° West  Level FlightAware Approximate
10:19AM 60.2845 -32.1513 284° West  Level FlightAware Approximate
10:20AM 60.3148 -32.3999 284° West  Level FlightAware Approximate
10:21AM 60.3447 -32.6489 284° West  Level FlightAware Approximate
10:22AM 60.3741 -32.8984 284° West  Level FlightAware Approximate
10:23AM 60.4030 -33.1483 283° West  Level FlightAware Approximate
10:24AM 60.4314 -33.3987 283° West  Level FlightAware Approximate
10:25AM 60.4594 -33.6495 283° West  Level FlightAware Approximate
10:26AM 60.4869 -33.9008 283° West  Level FlightAware Approximate
10:27AM 60.5140 -34.1524 282° West  Level FlightAware Approximate
10:28AM 60.5405 -34.4045 282° West  Level FlightAware Approximate
10:29AM 60.5666 -34.6570 282° West  Level FlightAware Approximate
10:30AM 60.5922 -34.9099 282° West  Level FlightAware Approximate
10:31AM 60.6174 -35.1632 282° West  Level FlightAware Approximate
10:32AM 60.6420 -35.4169 281° West  Level FlightAware Approximate
10:33AM 60.6662 -35.6709 281° West  Level FlightAware Approximate
10:34AM 60.6899 -35.9254 281° West  Level FlightAware Approximate
10:35AM 60.7131 -36.1802 281° West  Level FlightAware Approximate
10:36AM 60.7358 -36.4353 280° West  Level FlightAware Approximate
10:37AM 60.7580 -36.6909 280° West  Level FlightAware Approximate
10:38AM 60.7798 -36.9468 280° West  Level FlightAware Approximate
10:38AM 60.7833 -36.6000 279° West 460 529 35,000  Level Gander Center
10:39AM 60.8011 -37.2030 280° West  Level FlightAware Approximate
10:39AM 60.8000 -36.8500 278° West 460 529 35,000  Level Gander Center
10:40AM 60.8218 -37.4596 280° West  Level FlightAware Approximate
10:40AM 60.8167 -37.1000 278° West 460 529 35,000  Level Gander Center
10:41AM 60.8421 -37.7165 279° West  Level FlightAware Approximate
10:41AM 60.8333 -37.3500 278° West 460 529 35,000  Level Gander Center
10:42AM 60.8619 -37.9737 279° West  Level FlightAware Approximate
10:42AM 60.8667 -37.6167 285° West 450 518 35,000  Level Gander Center
10:43AM 60.8812 -38.2312 279° West  Level FlightAware Approximate
10:43AM 60.8833 -37.8500 278° West 460 529 35,000  Level Gander Center
10:44AM 60.9000 -38.1333 277° West 450 518 35,000  Level Gander Center
10:45AM 60.9167 -38.3667 278° West 450 518 35,000  Level Gander Center
10:46AM 60.9333 -38.6000 278° West 450 518 35,000  Level Gander Center
10:47AM 60.9500 -38.8667 277° West 450 518 35,000  Level Gander Center
10:48AM 60.9667 -39.1000 278° West 450 518 35,000  Level Gander Center
10:49AM 60.9833 -39.3833 277° West 450 518 35,000  Level Gander Center
10:50AM 61.0000 -39.6167 278° West 450 518 35,000  Level Gander Center
10:51AM 61.0167 -39.8667 278° West 450 518 35,000  Level Gander Center
10:52AM 61.0333 -40.1333 277° West 450 518 35,000  Level Gander Center
10:53AM 61.0333 -40.3833 270° West 450 518 35,000  Level Gander Center
10:54AM 61.0333 -40.6333 270° West 450 518 35,000  Level Gander Center
10:55AM 61.0500 -40.9167 277° West 450 518 35,000  Level Gander Center
10:56AM 61.0667 -41.1500 278° West 450 518 35,000  Level Gander Center
10:58AM 61.0667 -41.6833 270° West 450 518 35,000  Level Gander Center
10:59AM 61.0667 -41.9167 270° West 450 518 35,000  Level Gander Center
11:00AM 61.1000 -42.2000 284° West 460 529 35,000  Level Gander Center
11:01AM 61.1000 -42.4500 270° West 460 529 35,000  Level Gander Center
11:02AM 61.1000 -42.6833 270° West 460 529 35,000  Level Gander Center
11:03AM 61.1000 -42.9667 270° West 460 529 35,000  Level Gander Center
11:04AM 61.1000 -43.2167 270° West 460 529 35,000  Level Gander Center
11:05AM 61.1167 -43.5000 277° West 460 529 35,000  Level Gander Center
11:06AM 61.1167 -43.7333 270° West 460 529 35,000  Level Gander Center
11:07AM 61.1167 -44.0167 270° West 460 529 35,000 240 Level Gander Center
11:08AM 61.1167 -44.2667 270° West 460 529 35,500 480 Climbing Gander Center
11:09AM 61.1167 -44.5500 270° West 450 518 36,000 240 Climbing Gander Center
11:10AM 61.1167 -44.8000 270° West 450 518 36,000  Level Gander Center
11:11AM 61.1167 -45.0333 270° West 450 518 36,000  Level Gander Center
11:12AM 61.1167 -45.2833 270° West 450 518 36,000  Level Gander Center
11:13AM 61.1167 -45.5667 270° West 440 506 36,000  Level Gander Center
11:14AM 61.1167 -45.8167 270° West 440 506 36,000  Level Gander Center
11:15AM 61.1167 -46.0667 270° West 440 506 36,000  Level Gander Center
11:16AM 61.1000 -46.3167 262° West 430 495 36,000  Level Gander Center
11:17AM 61.1167 -46.5500 279° West 430 495 36,000  Level Gander Center
11:18AM 61.1000 -46.8000 262° West 430 495 36,000  Level Gander Center
11:19AM 61.1000 -47.0500 270° West 430 495 36,000  Level Gander Center
11:20AM 61.1000 -47.2833 270° West 430 495 36,000  Level Gander Center
11:21AM 61.1000 -47.5333 270° West 440 506 36,000  Level Gander Center
11:22AM 61.0833 -47.7833 262° West 440 506 36,000  Level Gander Center
11:23AM 61.0833 -48.0333 270° West 450 518 36,000  Level Gander Center
11:24AM 61.0667 -48.2833 262° West 450 518 36,000  Level Gander Center
11:25AM 61.0833 -48.5500 277° West 450 518 36,000  Level Gander Center
11:26AM 61.0667 -48.8000 262° West 450 518 36,000  Level Gander Center
11:27AM 61.0500 -49.0833 263° West 450 518 36,000  Level Gander Center
11:28AM 61.0500 -49.3333 270° West 450 518 36,000  Level Gander Center
11:29AM 61.0333 -49.5833 262° West 450 518 36,000  Level Gander Center
11:30AM 61.0333 -49.8500 270° West 450 518 36,000  Level Gander Center
11:31AM 61.0167 -50.1000 262° West 460 529 36,000  Level Gander Center
11:32AM 60.9833 -50.3500 255° West 460 529 36,000  Level Gander Center
11:33AM 60.9833 -50.6333 270° West 460 529 36,000  Level Gander Center
11:34AM 60.9667 -50.8833 262° West 460 529 36,000  Level Gander Center
11:35AM 60.9500 -51.1667 263° West 460 529 36,000  Level Gander Center
11:36AM 60.9333 -51.3833 261° West 460 529 36,000  Level Gander Center
11:37AM 60.9167 -51.6500 263° West 460 529 36,000  Level Gander Center
11:38AM 60.8833 -51.9000 255° West 460 529 36,000  Level Gander Center
11:39AM 60.8667 -52.1833 263° West 470 541 36,000  Level Gander Center
11:40AM 60.8500 -52.4333 262° West 470 541 36,000  Level Gander Center
11:41AM 60.8333 -52.6667 262° West 470 541 36,000  Level Gander Center
11:42AM 60.8167 -52.9500 263° West 470 541 36,000  Level Gander Center
11:43AM 60.7833 -53.2333 257° West 470 541 36,000  Level Gander Center
11:44AM 60.7667 -53.4833 262° West 470 541 36,000  Level Gander Center
11:45AM 60.7500 -53.7500 263° West 470 541 36,000  Level Gander Center
11:46AM 60.7333 -54.0000 262° West 480 552 36,000  Level Gander Center
11:47AM 60.6833 -54.2833 250° West 480 552 36,000  Level Gander Center
11:48AM 60.6667 -54.5500 263° West 480 552 36,000  Level Gander Center
11:49AM 60.6500 -54.8000 262° West 480 552 36,000  Level Gander Center
11:50AM 60.6167 -55.0833 257° West 480 552 36,000  Level Gander Center
11:51AM 60.5833 -55.3167 254° West 480 552 36,000  Level Gander Center
11:52AM 60.5667 -55.6000 263° West 480 552 36,000  Level Gander Center
11:53AM 60.5500 -55.8667 263° West 480 552 36,000  Level Gander Center
11:54AM 60.5000 -56.1167 248° West 480 552 36,000  Level Gander Center
11:55AM 60.4833 -56.3833 263° West 480 552 36,000  Level Gander Center
11:56AM 60.4500 -56.6667 257° West 480 552 36,000  Level Gander Center
11:57AM 60.4167 -56.9333 256° West 490 564 36,000  Level Gander Center
11:58AM 60.3833 -57.1833 255° West 480 552 36,000  Level Gander Center
11:59AM 60.3667 -57.4500 263° West 480 552 36,000  Level Gander Center
12:00PM 60.3167 -57.7167 249° West 490 564 36,000  Level Gander Center
12:01PM 60.3000 -58.0000 263° West 490 564 36,000  Level Gander Center
12:02PM 60.2667 -58.2333 254° West 490 564 36,000  Level Gander Center
12:03PM 60.2167 -58.5000 249° West 490 564 36,000  Level Gander Center
12:04PM 60.2000 -58.7667 263° West 490 564 36,000  Level Gander Center
12:05PM 60.1667 -59.0500 257° West 490 564 36,000  Level Gander Center
12:06PM 60.1167 -59.2833 247° West 480 552 36,000  Level Gander Center
12:07PM 60.0833 -59.5500 256° West 480 552 36,000  Level Gander Center
12:08PM 60.0667 -59.8167 263° West 480 552 36,000  Level Gander Center
12:09PM 60.0167 -60.0500 247° West 480 552 36,000  Level Gander Center
12:10PM 59.9833 -60.3167 256° West 480 552 36,000  Level Gander Center
12:11PM 59.9333 -60.5833 250° West 480 552 36,000  Level Gander Center
12:12PM 59.9000 -60.7833 252° West 480 552 36,000  Level Gander Center
12:13PM 59.8500 -61.0167 247° West 480 552 36,000  Level Gander Center
12:14PM 59.8167 -61.2833 256° West 480 552 36,000  Level Gander Center
12:15PM 59.7667 -61.5500 250° West 480 552 36,000  Level Gander Center
12:16PM 59.7167 -61.8167 250° West 490 564 36,000  Level Gander Center
12:17PM 59.6667 -62.0667 248° West 480 552 36,000  Level Gander Center
12:18PM 59.6167 -62.2667 244° Southwest 480 552 36,000  Level Montreal Center
12:19PM 59.5833 -62.5333 256° West 480 552 36,000  Level Montreal Center
12:20PM 59.5167 -62.7500 239° Southwest 480 552 36,000  Level Montreal Center
12:21PM 59.4333 -62.9500 231° Southwest 470 541 36,000  Level Montreal Center
12:22PM 59.3500 -63.1500 231° Southwest 470 541 36,000  Level Montreal Center
12:23PM 59.2667 -63.3833 235° Southwest 480 552 36,000  Level Montreal Center
12:24PM 59.2000 -63.5667 235° Southwest 470 541 36,000  Level Montreal Center
12:25PM 59.1333 -63.8000 241° Southwest 480 552 36,000  Level Montreal Center
12:26PM 59.0333 -64.0000 226° Southwest 480 552 36,000  Level Montreal Center
12:27PM 58.9667 -64.2167 239° Southwest 480 552 36,000  Level Montreal Center
12:28PM 58.8833 -64.4167 231° Southwest 470 541 36,000  Level Montreal Center
12:29PM 58.7833 -64.6000 224° Southwest 470 541 36,000  Level Montreal Center
12:30PM 58.7000 -64.8333 236° Southwest 470 541 36,000  Level Montreal Center
12:31PM 58.6333 -65.0167 235° Southwest 470 541 36,000  Level Montreal Center
12:32PM 58.5500 -65.2000 229° Southwest 470 541 36,000  Level Montreal Center
12:33PM 58.4667 -65.4167 234° Southwest 470 541 36,000  Level Montreal Center
12:34PM 58.4000 -65.6000 235° Southwest 470 541 36,000  Level Montreal Center
12:35PM 58.3167 -65.7833 229° Southwest 470 541 36,000  Level Montreal Center
12:36PM 58.2167 -65.9667 224° Southwest 470 541 36,000  Level Montreal Center
12:37PM 58.1333 -66.1833 234° Southwest 470 541 36,000  Level Montreal Center
12:38PM 58.0667 -66.3667 236° Southwest 470 541 36,000  Level Montreal Center
12:39PM 57.9833 -66.5833 234° Southwest 470 541 36,000  Level Montreal Center
12:40PM 57.9000 -66.7667 230° Southwest 470 541 36,000  Level Montreal Center
12:41PM 57.8000 -66.9500 224° Southwest 470 541 36,000  Level Montreal Center
12:42PM 57.7333 -67.1167 233° Southwest 460 529 36,000  Level Montreal Center
12:43PM 57.6500 -67.3333 234° Southwest 460 529 36,000  Level Montreal Center
12:44PM 57.5500 -67.5167 225° Southwest 460 529 36,000  Level Montreal Center
12:45PM 57.4833 -67.6833 233° Southwest 460 529 36,000  Level Montreal Center
12:46PM 57.4000 -67.8667 230° Southwest 460 529 36,000  Level Montreal Center
12:47PM 57.3167 -68.0333 227° Southwest 460 529 36,000  Level Montreal Center
12:48PM 57.2333 -68.2500 235° Southwest 460 529 36,000  Level Montreal Center
12:49PM 57.1333 -68.4167 222° Southwest 460 529 36,000  Level Montreal Center
12:50PM 57.0667 -68.5833 234° Southwest 460 529 36,000  Level Montreal Center
12:51PM 56.9667 -68.7667 225° Southwest 460 529 36,000  Level Montreal Center
12:52PM 56.9000 -68.9333 234° Southwest 460 529 36,000  Level Montreal Center
12:53PM 56.8000 -69.1000 222° Southwest 460 529 36,000  Level Montreal Center
12:54PM 56.7167 -69.3000 233° Southwest 460 529 36,000  Level Montreal Center
12:55PM 56.6333 -69.4667 228° Southwest 460 529 36,000  Level Montreal Center
12:56PM 56.5500 -69.6333 228° Southwest 460 529 36,000  Level Montreal Center
12:57PM 56.4500 -69.8333 228° Southwest 460 529 36,000  Level Montreal Center
12:58PM 56.3833 -70.0000 234° Southwest 460 529 36,000  Level Montreal Center
12:59PM 56.2833 -70.1667 223° Southwest 460 529 36,000  Level Montreal Center
01:00PM 56.2167 -70.3333 234° Southwest 460 529 36,000  Level Montreal Center
01:01PM 56.1167 -70.5000 223° Southwest 460 529 36,000  Level Montreal Center
01:02PM 56.0333 -70.6500 225° Southwest 460 529 36,000  Level Montreal Center
01:03PM 55.9500 -70.8167 228° Southwest 460 529 36,000  Level Montreal Center
01:04PM 55.8500 -71.0167 228° Southwest 450 518 36,000  Level Montreal Center
01:05PM 55.7667 -71.1667 225° Southwest 460 529 36,000  Level Montreal Center
01:06PM 55.6833 -71.3333 228° Southwest 460 529 36,000  Level Montreal Center
01:07PM 55.6000 -71.4833 226° Southwest 460 529 36,000  Level Montreal Center
01:08PM 55.5000 -71.6500 223° Southwest 450 518 36,000  Level Montreal Center
01:09PM 55.4167 -71.8000 226° Southwest 450 518 36,000  Level Montreal Center
01:10PM 55.3333 -71.9667 229° Southwest 450 518 36,000  Level Montreal Center
01:11PM 55.2500 -72.1167 226° Southwest 460 529 36,000  Level Montreal Center
01:12PM 55.1500 -72.3000 226° Southwest 460 529 36,000  Level Montreal Center
01:13PM 55.0500 -72.4667 224° Southwest 450 518 36,000  Level Montreal Center
01:14PM 54.9833 -72.6167 232° Southwest 450 518 36,000  Level Montreal Center
01:15PM 54.8833 -72.7667 221° Southwest 450 518 36,000  Level Montreal Center
01:16PM 54.8000 -72.9167 226° Southwest 450 518 36,000  Level Montreal Center
01:17PM 54.7000 -73.0833 224° Southwest 450 518 36,000  Level Montreal Center
01:18PM 54.6167 -73.2500 229° Southwest 450 518 36,000  Level Montreal Center
01:19PM 54.5167 -73.4167 224° Southwest 450 518 36,000  Level Montreal Center
01:20PM 54.4500 -73.5667 233° Southwest 450 518 36,000  Level Montreal Center
01:21PM 54.3500 -73.7167 221° Southwest 450 518 36,000  Level Montreal Center
01:22PM 54.2667 -73.8667 226° Southwest 450 518 36,000  Level Montreal Center
01:23PM 54.1833 -74.0000 223° Southwest 450 518 36,000  Level Montreal Center
01:24PM 54.0833 -74.1500 221° Southwest 450 518 36,000  Level Montreal Center
01:25PM 53.9833 -74.3333 227° Southwest 450 518 36,000  Level Montreal Center
01:26PM 53.9000 -74.4833 227° Southwest 450 518 36,000  Level Montreal Center
01:27PM 53.8000 -74.6167 218° Southwest 450 518 36,000  Level Montreal Center
01:28PM 53.7167 -74.7667 227° Southwest 450 518 36,000  Level Montreal Center
01:29PM 53.6333 -74.9167 227° Southwest 450 518 36,000  Level Montreal Center
01:30PM 53.5333 -75.0500 218° Southwest 450 518 36,000  Level Montreal Center
01:31PM 53.4333 -75.2000 222° Southwest 450 518 36,000  Level Montreal Center
01:32PM 53.3500 -75.3500 227° Southwest 450 518 36,000  Level Montreal Center
01:33PM 53.2667 -75.4833 224° Southwest 450 518 36,000  Level Montreal Center
01:34PM 53.1667 -75.6333 222° Southwest 450 518 36,000  Level Montreal Center
01:35PM 53.0667 -75.7667 219° Southwest 450 518 36,000  Level Montreal Center
01:36PM 52.9833 -75.9000 224° Southwest 450 518 36,000  Level Montreal Center
01:37PM 52.8833 -76.0500 222° Southwest 450 518 36,000  Level Montreal Center
01:38PM 52.8000 -76.1833 224° Southwest 440 506 36,000  Level Montreal Center
01:39PM 52.7167 -76.3333 228° Southwest 440 506 36,000  Level Montreal Center
01:40PM 52.6167 -76.4667 219° Southwest 440 506 36,000  Level Montreal Center
01:41PM 52.5333 -76.6000 224° Southwest 440 506 36,000  Level Montreal Center
01:42PM 52.4333 -76.7333 219° Southwest 450 518 36,000  Level Montreal Center
01:43PM 52.3500 -76.8667 224° Southwest 450 518 36,000  Level Montreal Center
01:44PM 52.2667 -77.0167 228° Southwest 440 506 36,000  Level Montreal Center
01:45PM 52.1500 -77.1500 215° Southwest 440 506 36,000  Level Montreal Center
01:46PM 52.0667 -77.2833 225° Southwest 440 506 36,000  Level Montreal Center
01:47PM 51.9667 -77.4167 219° Southwest 440 506 36,000  Level Montreal Center
01:48PM 51.8833 -77.5500 225° Southwest 450 518 36,000  Level Montreal Center
01:49PM 51.7833 -77.7000 223° Southwest 440 506 36,000  Level Montreal Center
01:50PM 51.7000 -77.8333 225° Southwest 450 518 36,000  Level Montreal Center
01:51PM 51.5833 -77.9667 215° Southwest 450 518 36,000  Level Montreal Center
01:52PM 51.5000 -78.1000 225° Southwest 440 506 36,000  Level Montreal Center
01:53PM 51.4000 -78.2333 220° Southwest 450 518 36,000  Level Montreal Center
01:54PM 51.3167 -78.3667 225° Southwest 450 518 36,000  Level Montreal Center
01:55PM 51.2167 -78.4833 216° Southwest 460 529 36,000  Level Montreal Center
01:56PM 51.1167 -78.6167 220° Southwest 460 529 36,000  Level Montreal Center
01:57PM 51.0167 -78.7667 223° Southwest 440 506 36,000  Level Montreal Center
01:58PM 50.9333 -78.9000 225° Southwest 460 529 36,000  Level Montreal Center
01:59PM 50.8333 -79.0333 220° Southwest 450 518 36,000  Level Montreal Center
02:00PM 50.7167 -79.1500 212° Southwest 450 518 36,000  Level Montreal Center
02:01PM 50.6333 -79.2833 225° Southwest 450 518 36,000  Level Montreal Center
02:02PM 50.5333 -79.4333 224° Southwest 460 529 36,000  Level Montreal Center
02:03PM 50.4333 -79.5667 220° Southwest 450 518 36,000  Level Montreal Center
02:04PM 50.3500 -79.6500 213° Southwest 460 529 36,000  Level Montreal Center
02:05PM 50.2500 -79.8000 224° Southwest 450 518 36,000  Level Montreal Center
02:06PM 50.1667 -79.9333 226° Southwest 450 518 36,000  Level Montreal Center
02:07PM 50.0500 -80.0500 213° Southwest 450 518 36,000  Level Montreal Center
02:08PM 49.9500 -80.1833 221° Southwest 450 518 36,000  Level Montreal Center
02:09PM 49.8667 -80.3000 222° Southwest 450 518 36,000  Level Montreal Center
02:10PM 49.7500 -80.4167 213° Southwest 450 518 36,000  Level Montreal Center
02:11PM 49.6667 -80.5667 229° Southwest 450 518 36,000  Level Montreal Center
02:12PM 49.5500 -80.6833 213° Southwest 450 518 36,000  Level Montreal Center
02:13PM 49.4500 -80.8000 217° Southwest 450 518 36,000  Level Montreal Center
02:14PM 49.3667 -80.9333 226° Southwest 460 529 36,000  Level Montreal Center
02:15PM 49.2667 -81.0500 217° Southwest 460 529 36,000  Level Montreal Center
02:16PM 49.1667 -81.1667 217° Southwest 460 529 36,000  Level Montreal Center
02:17PM 49.0667 -81.2833 217° Southwest 460 529 36,000  Level Montreal Center
02:18PM 48.9667 -81.4167 221° Southwest 460 529 36,000  Level Montreal Center
02:19PM 48.8667 -81.5333 218° Southwest 460 529 36,000  Level Montreal Center
02:20PM 48.7500 -81.6500 213° Southwest 460 529 36,000  Level Montreal Center
02:21PM 48.6667 -81.7667 223° Southwest 460 529 36,000  Level Montreal Center
02:22PM 48.5500 -81.8833 214° Southwest 460 529 36,000  Level Montreal Center
02:23PM 48.4667 -82.0333 230° Southwest 460 529 36,000  Level Montreal Center
02:24PM 48.3667 -82.1333 214° Southwest 460 529 36,000  Level Montreal Center
02:25PM 48.2500 -82.2500 214° Southwest 460 529 36,000  Level Montreal Center
02:26PM 48.1667 -82.3667 223° Southwest 460 529 36,000  Level Montreal Center
02:27PM 48.0333 -82.4500 203° Southwest 460 529 36,000  Level Toronto Center
02:32PM 47.3910 -82.9010 203° Southwest 468 539 36,000  Level FlightAware
02:33PM 47.3030 -82.9600 204° Southwest 466 536 36,000  Level FlightAware
02:34PM 47.2350 -83.0060 205° Southwest 466 536 36,000  Level FlightAware
02:34PM 47.1600 -83.0560 204° Southwest 465 535 36,000  Level FlightAware
02:35PM 47.0740 -83.1130 204° Southwest 464 534 36,000  Level FlightAware
02:36PM 47.0030 -83.1600 204° Southwest 463 533 36,000  Level FlightAware
02:37PM 46.9090 -83.2220 204° Southwest 461 531 36,000  Level FlightAware
02:37PM 46.8320 -83.2730 204° Southwest 462 532 36,000  Level FlightAware
02:38PM 46.7470 -83.3290 204° Southwest 463 533 36,000  Level FlightAware
02:39PM 46.6610 -83.3850 204° Southwest 463 533 36,000  Level FlightAware
02:39PM 46.5860 -83.4340 204° Southwest 465 535 36,000  Level FlightAware
02:40PM 46.4960 -83.4920 204° Southwest 466 536 36,000  Level FlightAware
02:41PM 46.4130 -83.5470 205° Southwest 467 537 36,000  Level FlightAware
02:41PM 46.3340 -83.5970 204° Southwest 467 537 36,000  Level FlightAware
02:42PM 46.2550 -83.6480 204° Southwest 468 539 36,000  Level FlightAware
02:43PM 46.1750 -83.6990 204° Southwest 470 541 36,000  Level FlightAware
02:44PM 46.0860 -83.7570 204° Southwest 471 542 36,000  Level FlightAware
02:44PM 46.0050 -83.8080 204° Southwest 473 544 36,000  Level FlightAware
02:45PM 45.9170 -83.8640 204° Southwest 475 547 36,000  Level FlightAware
02:46PM 45.8280 -83.9200 204° Southwest 476 548 36,000  Level FlightAware
02:46PM 45.7460 -83.9720 204° Southwest 479 551 36,000  Level FlightAware
02:47PM 45.6770 -84.0160 204° Southwest 480 552 36,000  Level FlightAware
02:48PM 45.6070 -84.0600 204° Southwest 481 554 36,000  Level FlightAware
02:48PM 45.5010 -84.1260 204° Southwest 482 555 36,000  Level FlightAware
02:49PM 45.4130 -84.1800 203° Southwest 483 556 36,000  Level FlightAware
02:50PM 45.3300 -84.2330 204° Southwest 485 558 36,000  Level FlightAware
02:50PM 45.2450 -84.2850 203° Southwest 486 559 36,000  Level FlightAware
02:51PM 45.1560 -84.3400 204° Southwest 487 560 36,000  Level FlightAware
02:52PM 45.0890 -84.3810 203° Southwest 488 562 36,000  Level FlightAware
02:53PM 44.9530 -84.4640 203° Southwest 490 564 36,000  Level FlightAware
02:53PM 44.8700 -84.5150 204° Southwest 491 565 36,000  Level FlightAware
02:54PM 44.7950 -84.5610 204° Southwest 493 567 36,000 -120 Level FlightAware
02:55PM 44.6750 -84.6330 203° Southwest 490 564 35,900 -420 Descending FlightAware
02:56PM 44.5540 -84.7070 204° Southwest 484 557 35,300 -840 Descending FlightAware
02:57PM 44.4630 -84.7610 203° Southwest 486 559 34,500 -960 Descending FlightAware
02:57PM 44.3880 -84.8060 203° Southwest 485 558 34,100 -660 Descending FlightAware
02:58PM 44.2890 -84.8650 203° Southwest 479 551 33,600 -780 Descending FlightAware
02:59PM 44.2050 -84.9150 203° Southwest 479 551 33,000 -960 Descending FlightAware
02:59PM 44.1300 -84.9590 203° Southwest 479 551 32,400 -780 Descending FlightAware
03:00PM 44.0450 -85.0100 203° Southwest 475 547 32,000 -300 Descending FlightAware
03:01PM 43.9560 -85.0620 203° Southwest 477 549 32,000  Level FlightAware
03:02PM 43.8670 -85.1140 203° Southwest 479 551 32,000  Level FlightAware
03:02PM 43.7780 -85.1670 203° Southwest 481 554 32,000  Level FlightAware
03:03PM 43.6950 -85.2110 201° Southwest 485 558 32,000  Level FlightAware
03:04PM 43.6010 -85.2450 195° South 487 560 32,000  Level FlightAware
03:04PM 43.5050 -85.2750 193° South 490 564 32,000 -300 Level FlightAware
03:05PM 43.4130 -85.3030 192° South 488 562 31,600 -720 Descending FlightAware
03:06PM 43.3220 -85.3320 193° South 480 552 31,000 -900 Descending FlightAware
03:06PM 43.2350 -85.3590 193° South 474 545 30,400 -960 Descending FlightAware
03:07PM 43.1450 -85.3870 193° South 470 541 29,700 -1,080 Descending FlightAware
03:08PM 43.0610 -85.4130 193° South 466 536 29,000 -1,020 Descending FlightAware
03:09PM 42.9700 -85.4410 193° South 463 533 28,300 -780 Descending FlightAware
03:09PM 42.8940 -85.4640 193° South 462 532 28,000 -240 Descending FlightAware
03:10PM 42.8150 -85.5040 200° South 453 521 28,000  Level FlightAware
03:10PM 42.7910 -85.5350 223° Southwest 446 513 28,000  Level FlightAware
03:10PM 42.7750 -85.5720 240° Southwest 440 506 28,000  Level FlightAware
03:11PM 42.7530 -85.6790 254° West 437 503 28,000 -720 Level FlightAware
03:12PM 42.7330 -85.7950 257° West 429 494 27,000 -1,800 Descending FlightAware
03:12PM 42.7150 -85.8940 256° West 422 486 25,600 -2,280 Descending FlightAware
03:13PM 42.6950 -86.0060 256° West 414 476 23,900 -2,280 Descending FlightAware
03:14PM 42.6780 -86.0950 255° West 407 468 22,600 -2,160 Descending FlightAware
03:14PM 42.6590 -86.2000 256° West 401 461 21,100 -1,980 Descending FlightAware
03:15PM 42.6410 -86.2970 256° West 390 449 19,900 -1,200 Descending FlightAware
03:16PM 42.6230 -86.3910 255° West 386 444 19,500 -660 Descending FlightAware
03:17PM 42.6030 -86.5020 256° West 383 441 19,000 -660 Descending FlightAware
03:17PM 42.5850 -86.5960 255° West 382 440 18,600 -1,440 Descending FlightAware
03:18PM 42.5650 -86.6990 255° West 377 434 17,000 -2,100 Descending FlightAware
03:19PM 42.5450 -86.7820 252° West 374 430 15,700 -2,160 Descending FlightAware
03:19PM 42.5190 -86.8790 250° West 371 427 14,100 -2,220 Descending FlightAware
03:20PM 42.4980 -86.9570 250° West 367 422 12,800 -2,160 Descending FlightAware
03:21PM 42.4700 -87.0570 249° West 364 419 11,100 -1,800 Descending FlightAware
03:21PM 42.4510 -87.1280 250° West 348 400 10,400 -960 Descending FlightAware
03:22PM 42.4270 -87.1900 242° Southwest 325 374 10,100 -480 Descending FlightAware
03:22PM 42.4050 -87.2070 210° Southwest 315 362 10,000 -300 Descending FlightAware
03:23PM 42.3720 -87.2130 188° South 296 341 9,900 -540 Descending FlightAware
03:23PM 42.3380 -87.2160 184° South 282 325 9,600 -600 Descending FlightAware
03:23PM 42.3040 -87.2210 186° South 284 327 9,400 -840 Descending FlightAware
03:24PM 42.2690 -87.2250 185° South 286 329 8,900 -1,140 Descending FlightAware
03:24PM 42.2340 -87.2290 185° South 285 328 8,400 -1,080 Descending FlightAware
03:25PM 42.2080 -87.2320 185° South 280 322 8,100 -1,200 Descending FlightAware
03:25PM 42.1740 -87.2360 185° South 279 321 7,500 -1,320 Descending FlightAware
03:25PM 42.1420 -87.2400 185° South 274 315 7,000 -780 Descending FlightAware
03:26PM 42.1010 -87.2450 185° South 276 318 6,800 -240 Descending FlightAware
03:26PM 42.0660 -87.2490 185° South 275 316 6,800  Level FlightAware
03:27PM 42.0310 -87.2570 190° South 272 313 6,800  Level FlightAware
03:27PM 42.0180 -87.2700 217° Southwest 269 310 6,800 240 Level FlightAware
03:27PM 42.0110 -87.2850 238° Southwest 265 305 6,900  Climbing FlightAware
03:28PM 41.9920 -87.3370 244° Southwest 269 310 6,800  Descending FlightAware
03:28PM 41.9840 -87.3740 254° West 267 307 6,900  Climbing FlightAware
03:29PM 41.9820 -87.4150 266° West 260 299 6,800  Descending FlightAware
03:29PM 41.9820 -87.4480 270° West 263 303 6,900 -360 Climbing FlightAware
03:30PM 41.9830 -87.5010 271° West 261 300 6,500 -960 Descending FlightAware
03:30PM 41.9840 -87.5450 272° West 240 276 6,000 -1,140 Descending FlightAware
03:30PM 41.9840 -87.5710 270° West 227 261 5,600 -1,200 Descending FlightAware
03:31PM 41.9830 -87.6150 268° West 193 222 5,000 -1,440 Descending FlightAware
03:31PM 41.9840 -87.6490 272° West 181 208 4,200 -1,620 Descending FlightAware
03:32PM 41.9840 -87.6980 270° West 184 212 3,100 -1,560 Descending FlightAware
03:32PM 41.9840 -87.7180 270° West 184 212 2,700 -1,200 Descending FlightAware
03:33PM 41.9840 -87.7450 270° West 189 217 2,300 -780 Descending FlightAware
03:33PM 41.9840 -87.7630 270° West 190 219 2,200 -600 Descending FlightAware
03:34PM 41.9840 -87.8050 270° West 165 190 1,800 -780 Descending FlightAware
03:35PM 41.9840 -87.8560 270° West 136 157 1,000 -840 Descending FlightAware
03:35PM 41.9840 -87.8800 270° West 143 165 700 -720 Descending FlightAware
03:36PM 41.9840 -87.9130 270° West 42 48 -840 Descending FlightAware
03:36PM 41.9840 -87.9180 270° West 32 37  Level FlightAware
03:37PM 41.9830 -87.9180 180° South 19 22  Level FlightAware
03:37PM 41.9820 -87.9180 180° South 24 28  Level FlightAware
03:38PM 41.9820 -87.9170 90° East 34 39  Level FlightAware